地図

経路データ

SID SEASON NUMBER BASIN SUBBASIN NAME ISO_TIME NATURE LAT LON WMO_WIND WMO_PRES WMO_AGENCY TRACK_TYPE DIST2LAND LANDFALL IFLAG USA_AGENCY USA_ATCF_ID USA_LAT USA_LON USA_RECORD USA_STATUS USA_WIND USA_PRES USA_SSHS USA_R34_NE USA_R34_SE USA_R34_SW USA_R34_NW USA_R50_NE USA_R50_SE USA_R50_SW USA_R50_NW USA_R64_NE USA_R64_SE USA_R64_SW USA_R64_NW USA_POCI USA_ROCI USA_RMW USA_EYE TOKYO_LAT TOKYO_LON TOKYO_GRADE TOKYO_WIND TOKYO_PRES TOKYO_R50_DIR TOKYO_R50_LONG TOKYO_R50_SHORT TOKYO_R30_DIR TOKYO_R30_LONG TOKYO_R30_SHORT TOKYO_LAND CMA_LAT CMA_LON CMA_CAT CMA_WIND CMA_PRES HKO_LAT HKO_LON HKO_CAT HKO_WIND HKO_PRES NEWDELHI_LAT NEWDELHI_LON NEWDELHI_GRADE NEWDELHI_WIND NEWDELHI_PRES NEWDELHI_CI NEWDELHI_DP NEWDELHI_POCI REUNION_LAT REUNION_LON REUNION_TYPE REUNION_WIND REUNION_PRES REUNION_TNUM REUNION_CI REUNION_RMW REUNION_R34_NE REUNION_R34_SE REUNION_R34_SW REUNION_R34_NW REUNION_R50_NE REUNION_R50_SE REUNION_R50_SW REUNION_R50_NW REUNION_R64_NE REUNION_R64_SE REUNION_R64_SW REUNION_R64_NW BOM_LAT BOM_LON BOM_TYPE BOM_WIND BOM_PRES BOM_TNUM BOM_CI BOM_RMW BOM_R34_NE BOM_R34_SE BOM_R34_SW BOM_R34_NW BOM_R50_NE BOM_R50_SE BOM_R50_SW BOM_R50_NW BOM_R64_NE BOM_R64_SE BOM_R64_SW BOM_R64_NW BOM_ROCI BOM_POCI BOM_EYE BOM_POS_METHOD BOM_PRES_METHOD NADI_LAT NADI_LON NADI_CAT NADI_WIND NADI_PRES WELLINGTON_LAT WELLINGTON_LON WELLINGTON_WIND WELLINGTON_PRES DS824_LAT DS824_LON DS824_STAGE DS824_WIND DS824_PRES TD9636_LAT TD9636_LON TD9636_STAGE TD9636_WIND TD9636_PRES TD9635_LAT TD9635_LON TD9635_WIND TD9635_PRES TD9635_ROCI NEUMANN_LAT NEUMANN_LON NEUMANN_CLASS NEUMANN_WIND NEUMANN_PRES MLC_LAT MLC_LON MLC_CLASS MLC_WIND MLC_PRES USA_GUST BOM_GUST BOM_GUST_PER REUNION_GUST REUNION_GUST_PER USA_SEAHGT USA_SEARAD_NE USA_SEARAD_SE USA_SEARAD_SW USA_SEARAD_NW STORM_SPEED STORM_DIR
1952104S09044 1952 24 SI MM NOT_NAMED 1952-04-13 06:00:00 NR -9.00000 44.0000 reunion main 418 413 _____O________ -1 -9.00000 44.0000 99 9.90000 1 163
1952104S09044 1952 24 SI MM NOT_NAMED 1952-04-13 09:00:00 NR -9.05362 44.0051 main 413 413 _____P________ -1 -9.05362 44.0051 99 1 0
1952104S09044 1952 24 SI MM NOT_NAMED 1952-04-13 12:00:00 NR -9.10690 44.0014 main 413 408 _____P________ -1 -9.10690 44.0014 99 1 0
1952104S09044 1952 24 SI MM NOT_NAMED 1952-04-13 15:00:00 NR -9.15950 43.9801 main 408 398 _____P________ -1 -9.15950 43.9801 99 1 214
1952104S09044 1952 24 SI MM NOT_NAMED 1952-04-13 18:00:00 NR -9.21108 43.9323 main 398 394 _____P________ -1 -9.21108 43.9323 99 2 233
1952104S09044 1952 24 SI MM NOT_NAMED 1952-04-13 21:00:00 NR -9.26130 43.8493 main 384 374 _____P________ -1 -9.26130 43.8493 99 2 245
1952104S09044 1952 24 SI MM NOT_NAMED 1952-04-14 00:00:00 NR -9.30980 43.7221 main 374 349 _____P________ -1 -9.30980 43.7221 99 3 253
1952104S09044 1952 24 SI MM NOT_NAMED 1952-04-14 03:00:00 NR -9.35617 43.5420 main 349 349 _____P________ -1 -9.35617 43.5420 99 5 10
1952104S09044 1952 24 SI MM NOT_NAMED 1952-04-14 06:00:00 TS -8.84286 43.8143 reunion main 410 391 O____O___OO___ jtwc_sh SH231952 -8.10000 44.5000 -1 -9.40000 43.3000 99 9.90000 -8.10000 44.5000 TC 25 -8.10000 44.5000 7 6 2
1952104S09044 1952 24 SI MM NOT_NAMED 1952-04-14 09:00:00 TS -8.76321 43.5425 main 382 347 P____P___PP___ SH231952 -8.30265 43.9101 -1 -9.44118 42.9911 99 -8.30265 43.9101 TC 25 -8.32837 43.9101 7 7 273
1952104S09044 1952 24 SI MM NOT_NAMED 1952-04-14 12:00:00 TS -8.80999 43.0937 main 347 297 O____P___OP___ jtwc_sh SH231952 -8.50000 43.3000 -1 -9.48113 42.6252 99 -8.50000 43.3000 TC 25 -8.53510 43.3058 7 10 262
1952104S09044 1952 24 SI MM NOT_NAMED 1952-04-14 15:00:00 TS -8.89520 42.5512 main 297 242 P____P___PP___ SH231952 -8.67993 42.6575 -1 -9.52165 42.2159 99 -8.67993 42.6575 TC 30 -8.69928 42.6736 7 12 261
1952104S09044 1952 24 SI MM NOT_NAMED 1952-04-14 18:00:00 TS -8.99115 41.9443 main 235 194 O____P___OO___ jtwc_sh SH231952 -8.80000 42.0000 -1 -9.56461 41.7771 99 -8.80000 42.0000 TC 35 -8.80000 42.0000 2 12 264
1952104S09044 1952 24 SI MM NOT_NAMED 1952-04-14 21:00:00 TS -9.02076 41.3264 main 184 121 P____P___PP___ SH231952 -8.82239 41.3499 -1 -9.61191 41.3224 99 -8.82239 41.3499 TC 35 -8.82636 41.2836 2 12 269
1952104S09044 1952 24 SI MM NOT_NAMED 1952-04-15 00:00:00 TS -9.01843 40.7093 main 121 56 O____P___OP___ jtwc_sh SH231952 -8.80000 40.7000 -1 -9.66553 40.8655 99 -8.80000 40.7000 TC 35 -8.80818 40.5719 2 12 270
1952104S09044 1952 24 SI MM NOT_NAMED 1952-04-15 03:00:00 TS -9.01713 40.0848 main 56 10 P____P___PP___ SH231952 -8.77761 39.9974 -1 -9.72752 40.4202 99 -8.77761 39.9974 TC 35 -8.78581 39.9243 2 11 268
1952104S09044 1952 24 SI MM NOT_NAMED 1952-04-15 06:00:00 TS -9.05000 39.5500 reunion main 10 0 O____O___OO___ jtwc_sh SH231952 -8.80000 39.4000 -1 -9.80000 40.0000 99 9.90000 -8.80000 39.4000 TC 35 -8.80000 39.4000 2 9 261
1952104S09044 1952 24 SI MM NOT_NAMED 1952-04-15 09:00:00 TS -9.15933 39.1773 main 0 0 P____P___PP___ SH231952 -8.92735 39.0176 -1 -9.88454 39.6156 99 -8.92735 39.0176 TC 35 -8.89808 39.0586 2 7 247
1952104S09044 1952 24 SI MM NOT_NAMED 1952-04-15 12:00:00 TS -9.30486 38.9269 main 0 0 O____P___OP___ jtwc_sh SH231952 -9.10000 38.8000 -1 -9.98023 39.2651 99 -9.10000 38.8000 TC 35 -9.03922 38.8426 2 5 236
1952104S09044 1952 24 SI MM NOT_NAMED 1952-04-15 15:00:00 TS -9.44530 38.7510 main 0 0 P____P___PP___ SH231952 -9.24245 38.6774 -1 -10.0855 38.9436 99 -9.24245 38.6774 TC 35 -9.21079 38.7054 2 4 227
1952104S09044 1952 24 SI MM NOT_NAMED 1952-04-15 18:00:00 TS -9.59971 38.6115 main 0 0 O____P___OO___ jtwc_sh SH231952 -9.40000 38.6000 -1 -10.1988 38.6462 99 -9.40000 38.6000 TC 35 -9.40000 38.6000 2 5 223
1952104S09044 1952 24 SI MM NOT_NAMED 1952-04-15 21:00:00 TS -9.77487 38.4390 main 0 0 P____P___PP___ SH231952 -9.59251 38.4500 -1 -10.3186 38.3680 99 -9.59251 38.4500 TC 35 -9.59590 38.4882 2 5 223
1952104S09044 1952 24 SI MM NOT_NAMED 1952-04-16 00:00:00 TS -9.95961 38.2673 main 0 0 O____P___OP___ jtwc_sh SH231952 -9.80000 38.3000 -1 -10.4431 38.1041 99 -9.80000 38.3000 TC 35 -9.79534 38.3651 2 5 221
1952104S09044 1952 24 SI MM NOT_NAMED 1952-04-16 03:00:00 TS -10.1432 38.1148 main 0 0 P____P___PP___ SH231952 -10.0025 38.1875 -1 -10.5708 37.8497 99 -10.0025 38.1875 TC 35 -9.99711 38.2345 2 5 218
1952104S09044 1952 24 SI MM NOT_NAMED 1952-04-16 06:00:00 TS -10.3250 37.9750 reunion main 0 O____O___OO___ jtwc_sh SH231952 -10.2000 38.1000 -1 -10.7000 37.6000 99 9.90000 -10.2000 38.1000 TC 35 -10.2000 38.1000 2 5 217

IBTrACS Databaseについて

本データベースは、米国NOAAが公開する1842年以降の世界の熱帯低気圧のベストトラックデータアーカイブInternational Best Track Archive for Climate Stewardship (IBTrACS)を、ウェブで閲覧しやすい形式に変換したものです。

最終更新日:2021-10-08